sensor_id;sensor_type;location;lat;lon;timestamp;pressure;altitude;pressure_sealevel;temperature;humidity
25650;BME280;13505;45.196;5.696;2023-02-08T05:04:57;100759.00;;;0.41;71.49
25650;BME280;13505;45.196;5.696;2023-02-08T05:09:47;100757.91;;;0.30;70.58
25650;BME280;13505;45.196;5.696;2023-02-08T05:14:37;100757.81;;;0.25;71.56
25650;BME280;13505;45.196;5.696;2023-02-08T05:19:28;100754.41;;;0.29;70.80
25650;BME280;13505;45.196;5.696;2023-02-08T05:24:18;100755.94;;;0.19;70.19
25650;BME280;13505;45.196;5.696;2023-02-08T05:29:08;100766.91;;;0.07;69.81
25650;BME280;13505;45.196;5.696;2023-02-08T05:33:59;100749.53;;;0.03;70.03
25650;BME280;13505;45.196;5.696;2023-02-08T05:38:50;100752.88;;;-0.01;70.16
25650;BME280;13505;45.196;5.696;2023-02-08T05:43:40;100740.53;;;0.27;72.97
25650;BME280;13505;45.196;5.696;2023-02-08T05:48:31;100756.44;;;0.43;73.56
25650;BME280;13505;45.196;5.696;2023-02-08T05:53:22;100749.88;;;0.60;73.25
25650;BME280;13505;45.196;5.696;2023-02-08T05:58:12;100749.88;;;0.60;73.64
25650;BME280;13505;45.196;5.696;2023-02-08T06:03:02;100755.09;;;0.63;74.03
25650;BME280;13505;45.196;5.696;2023-02-08T06:07:53;100764.50;;;0.55;75.41
25650;BME280;13505;45.196;5.696;2023-02-08T06:12:43;100760.47;;;0.71;74.99
25650;BME280;13505;45.196;5.696;2023-02-08T06:17:34;100759.56;;;0.69;74.73
25650;BME280;13505;45.196;5.696;2023-02-08T06:22:24;100765.88;;;0.82;74.38
25650;BME280;13505;45.196;5.696;2023-02-08T06:27:15;100767.47;;;0.75;74.59
25650;BME280;13505;45.196;5.696;2023-02-08T06:32:05;100782.31;;;0.38;76.01
25650;BME280;13505;45.196;5.696;2023-02-08T06:36:55;100776.38;;;0.45;76.24
25650;BME280;13505;45.196;5.696;2023-02-08T06:41:46;100786.28;;;0.63;75.91
25650;BME280;13505;45.196;5.696;2023-02-08T06:46:36;100792.81;;;0.43;75.91
25650;BME280;13505;45.196;5.696;2023-02-08T06:51:27;100784.66;;;0.27;76.39
25650;BME280;13505;45.196;5.696;2023-02-08T06:56:17;100800.28;;;0.30;77.11
25650;BME280;13505;45.196;5.696;2023-02-08T07:01:12;100803.19;;;0.44;76.42
25650;BME280;13505;45.196;5.696;2023-02-08T07:06:03;100810.28;;;0.51;75.43
25650;BME280;13505;45.196;5.696;2023-02-08T07:10:53;100812.09;;;0.54;73.76
25650;BME280;13505;45.196;5.696;2023-02-08T07:15:43;100803.34;;;0.52;73.59
25650;BME280;13505;45.196;5.696;2023-02-08T07:20:34;100807.00;;;0.60;72.80
25650;BME280;13505;45.196;5.696;2023-02-08T07:25:24;100812.09;;;0.54;72.93
25650;BME280;13505;45.196;5.696;2023-02-08T07:30:15;100823.06;;;0.42;73.09
25650;BME280;13505;45.196;5.696;2023-02-08T07:35:05;100822.63;;;0.62;73.59
25650;BME280;13505;45.196;5.696;2023-02-08T07:39:56;100832.38;;;0.72;72.72
25650;BME280;13505;45.196;5.696;2023-02-08T07:44:46;100824.69;;;0.78;72.48
25650;BME280;13505;45.196;5.696;2023-02-08T07:49:36;100823.50;;;1.05;72.10
25650;BME280;13505;45.196;5.696;2023-02-08T07:54:27;100827.16;;;1.15;71.74
25650;BME280;13505;45.196;5.696;2023-02-08T07:59:18;100829.84;;;1.20;71.54
25650;BME280;13505;45.196;5.696;2023-02-08T08:04:08;100824.44;;;1.55;70.09
25650;BME280;13505;45.196;5.696;2023-02-08T08:08:59;100823.16;;;1.84;69.08
25650;BME280;13505;45.196;5.696;2023-02-08T08:13:50;100837.31;;;2.01;68.26
25650;BME280;13505;45.196;5.696;2023-02-08T08:18:40;100843.00;;;1.78;67.37
25650;BME280;13505;45.196;5.696;2023-02-08T08:23:31;100838.94;;;1.94;67.52
25650;BME280;13505;45.196;5.696;2023-02-08T08:28:22;100840.59;;;2.45;66.72
25650;BME280;13505;45.196;5.696;2023-02-08T08:33:12;100842.56;;;2.63;64.97
25650;BME280;13505;45.196;5.696;2023-02-08T08:38:03;100842.56;;;2.64;63.51
25650;BME280;13505;45.196;5.696;2023-02-08T08:42:53;100843.66;;;2.82;62.94
25650;BME280;13505;45.196;5.696;2023-02-08T08:47:44;100840.41;;;2.99;62.20
25650;BME280;13505;45.196;5.696;2023-02-08T08:52:34;100850.94;;;3.10;60.96
25650;BME280;13505;45.196;5.696;2023-02-08T08:57:25;100842.50;;;3.31;60.53
25650;BME280;13505;45.196;5.696;2023-02-08T09:02:15;100854.72;;;3.37;60.78
25650;BME280;13505;45.196;5.696;2023-02-08T09:07:06;100850.53;;;3.54;60.41
25650;BME280;13505;45.196;5.696;2023-02-08T09:11:57;100853.34;;;3.76;59.84
25650;BME280;13505;45.196;5.696;2023-02-08T09:16:47;100842.81;;;3.63;60.10
25650;BME280;13505;45.196;5.696;2023-02-08T09:21:38;100847.16;;;3.61;60.57
25650;BME280;13505;45.196;5.696;2023-02-08T09:26:29;100848.25;;;3.87;60.05
25650;BME280;13505;45.196;5.696;2023-02-08T09:31:25;100836.63;;;3.52;60.37
25650;BME280;13505;45.196;5.696;2023-02-08T09:36:16;100841.53;;;4.20;58.59
25650;BME280;13505;45.196;5.696;2023-02-08T09:46:23;100846.03;;;4.46;57.22
25650;BME280;13505;45.196;5.696;2023-02-08T09:51:20;100842.47;;;4.31;57.32
25650;BME280;13505;45.196;5.696;2023-02-08T09:56:18;100849.53;;;4.50;57.02
25650;BME280;13505;45.196;5.696;2023-02-08T10:01:30;100853.78;;;4.27;56.98
25650;BME280;13505;45.196;5.696;2023-02-08T10:06:22;100854.78;;;4.48;56.59
25650;BME280;13505;45.196;5.696;2023-02-08T10:16:54;100848.09;;;5.11;53.84
25650;BME280;13505;45.196;5.696;2023-02-08T10:27:00;100861.91;;;4.79;53.45
25650;BME280;13505;45.196;5.696;2023-02-08T10:37:26;100838.63;;;5.83;51.66
25650;BME280;13505;45.196;5.696;2023-02-08T10:42:20;100833.38;;;5.78;51.12
25650;BME280;13505;45.196;5.696;2023-02-08T10:52:24;100825.53;;;5.95;50.23
25650;BME280;13505;45.196;5.696;2023-02-08T10:57:24;100828.13;;;6.36;50.12
25650;BME280;13505;45.196;5.696;2023-02-08T11:02:21;100821.19;;;6.16;49.84
25650;BME280;13505;45.196;5.696;2023-02-08T11:07:19;100813.25;;;6.50;49.10
25650;BME280;13505;45.196;5.696;2023-02-08T11:12:18;100799.13;;;6.87;47.51
25650;BME280;13505;45.196;5.696;2023-02-08T11:17:25;100796.69;;;6.39;48.64
25650;BME280;13505;45.196;5.696;2023-02-08T11:22:18;100778.84;;;7.20;47.07
25650;BME280;13505;45.196;5.696;2023-02-08T11:27:32;100774.47;;;7.19;46.50
25650;BME280;13505;45.196;5.696;2023-02-08T11:32:22;100770.03;;;7.28;47.84
25650;BME280;13505;45.196;5.696;2023-02-08T11:37:21;100758.88;;;6.93;47.01
25650;BME280;13505;45.196;5.696;2023-02-08T11:42:22;100751.50;;;7.46;47.04
25650;BME280;13505;45.196;5.696;2023-02-08T11:47:17;100749.38;;;6.62;46.61
25650;BME280;13505;45.196;5.696;2023-02-08T11:52:27;100736.91;;;7.09;47.23
25650;BME280;13505;45.196;5.696;2023-02-08T11:57:20;100731.78;;;6.89;47.66
25650;BME280;13505;45.196;5.696;2023-02-08T12:02:35;100723.22;;;6.53;47.02
25650;BME280;13505;45.196;5.696;2023-02-08T12:07:31;100721.38;;;6.69;47.48
25650;BME280;13505;45.196;5.696;2023-02-08T12:12:31;100711.69;;;6.82;47.26
25650;BME280;13505;45.196;5.696;2023-02-08T12:23:01;100702.03;;;6.90;47.14
25650;BME280;13505;45.196;5.696;2023-02-08T12:33:27;100679.72;;;7.47;45.50
25650;BME280;13505;45.196;5.696;2023-02-08T12:38:32;100663.47;;;7.02;45.81
25650;BME280;13505;45.196;5.696;2023-02-08T12:49:12;100648.41;;;7.25;44.69
25650;BME280;13505;45.196;5.696;2023-02-08T12:54:12;100637.19;;;7.09;44.73
25650;BME280;13505;45.196;5.696;2023-02-08T12:59:05;100627.81;;;6.80;45.30
25650;BME280;13505;45.196;5.696;2023-02-08T13:04:09;100619.59;;;7.22;44.91
25650;BME280;13505;45.196;5.696;2023-02-08T13:19:28;100585.97;;;8.31;45.99
25650;BME280;13505;45.196;5.696;2023-02-08T13:29:23;100574.69;;;8.82;43.78
25650;BME280;13505;45.196;5.696;2023-02-08T13:34:21;100571.94;;;8.90;42.17
25650;BME280;13505;45.196;5.696;2023-02-08T13:39:38;100572.38;;;9.17;41.02
25650;BME280;13505;45.196;5.696;2023-02-08T13:44:35;100564.38;;;9.21;42.08
25650;BME280;13505;45.196;5.696;2023-02-08T13:49:59;100555.59;;;9.23;40.04
25650;BME280;13505;45.196;5.696;2023-02-08T14:00:25;100557.31;;;8.72;42.24
25650;BME280;13505;45.196;5.696;2023-02-08T14:10:34;100554.25;;;8.98;40.43
25650;BME280;13505;45.196;5.696;2023-02-08T14:15:33;100546.59;;;8.86;41.64
25650;BME280;13505;45.196;5.696;2023-02-08T14:20:35;100554.16;;;8.48;40.24
25650;BME280;13505;45.196;5.696;2023-02-08T14:25:39;100552.41;;;8.51;41.63
25650;BME280;13505;45.196;5.696;2023-02-08T14:30:37;100550.13;;;8.83;40.84
25650;BME280;13505;45.196;5.696;2023-02-08T14:35:30;100550.34;;;8.69;41.30
25650;BME280;13505;45.196;5.696;2023-02-08T14:50:32;100545.94;;;8.71;41.42
25650;BME280;13505;45.196;5.696;2023-02-08T14:55:26;100548.06;;;8.44;41.21
25650;BME280;13505;45.196;5.696;2023-02-08T15:00:32;100555.91;;;8.50;41.56
25650;BME280;13505;45.196;5.696;2023-02-08T15:05:29;100546.94;;;8.62;40.54
25650;BME280;13505;45.196;5.696;2023-02-08T15:10:21;100548.75;;;8.59;41.38
25650;BME280;13505;45.196;5.696;2023-02-08T15:20:22;100545.84;;;8.76;41.43
25650;BME280;13505;45.196;5.696;2023-02-08T15:25:26;100549.56;;;8.64;41.66
25650;BME280;13505;45.196;5.696;2023-02-08T15:30:25;100544.56;;;8.45;41.10
25650;BME280;13505;45.196;5.696;2023-02-08T15:35:18;100536.91;;;8.30;41.96
25650;BME280;13505;45.196;5.696;2023-02-08T15:40:33;100536.16;;;8.21;42.96
25650;BME280;13505;45.196;5.696;2023-02-08T15:45:26;100534.41;;;8.19;42.09
25650;BME280;13505;45.196;5.696;2023-02-08T15:50:21;100538.13;;;8.04;42.16
25650;BME280;13505;45.196;5.696;2023-02-08T15:55:15;100534.72;;;7.99;42.71
25650;BME280;13505;45.196;5.696;2023-02-08T16:00:21;100536.63;;;7.86;42.73
25650;BME280;13505;45.196;5.696;2023-02-08T16:05:20;100540.31;;;7.69;44.23
25650;BME280;13505;45.196;5.696;2023-02-08T16:15:44;100543.47;;;7.24;46.33
25650;BME280;13505;45.196;5.696;2023-02-08T16:20:35;100547.09;;;7.09;47.02
25650;BME280;13505;45.196;5.696;2023-02-08T16:25:41;100547.19;;;7.00;46.90
25650;BME280;13505;45.196;5.696;2023-02-08T16:30:32;100547.31;;;6.84;48.11
25650;BME280;13505;45.196;5.696;2023-02-08T16:35:26;100539.59;;;6.68;48.37
25650;BME280;13505;45.196;5.696;2023-02-08T16:40:45;100550.19;;;6.51;48.86
25650;BME280;13505;45.196;5.696;2023-02-08T16:45:40;100559.03;;;6.36;49.42
25650;BME280;13505;45.196;5.696;2023-02-08T16:50:30;100555.63;;;6.20;50.47
25650;BME280;13505;45.196;5.696;2023-02-08T16:55:26;100564.41;;;6.16;50.27
25650;BME280;13505;45.196;5.696;2023-02-08T17:00:21;100567.91;;;6.10;50.24
25650;BME280;13505;45.196;5.696;2023-02-08T17:05:13;100570.56;;;5.99;50.43
25650;BME280;13505;45.196;5.696;2023-02-08T17:10:06;100577.59;;;5.86;50.81
25650;BME280;13505;45.196;5.696;2023-02-08T17:14:56;100581.16;;;5.70;51.06
25650;BME280;13505;45.196;5.696;2023-02-08T17:19:47;100584.66;;;5.56;51.95
25650;BME280;13505;45.196;5.696;2023-02-08T17:24:37;100593.44;;;5.35;53.49
25650;BME280;13505;45.196;5.696;2023-02-08T17:29:27;100601.31;;;5.24;54.40
25650;BME280;13505;45.196;5.696;2023-02-08T17:34:18;100596.94;;;5.28;53.89
25650;BME280;13505;45.196;5.696;2023-02-08T17:39:09;100603.94;;;5.21;53.68
25650;BME280;13505;45.196;5.696;2023-02-08T17:43:59;100601.31;;;5.20;53.69
25650;BME280;13505;45.196;5.696;2023-02-08T17:48:50;100604.81;;;5.01;54.98
25650;BME280;13505;45.196;5.696;2023-02-08T17:53:42;100599.59;;;4.89;54.68
25650;BME280;13505;45.196;5.696;2023-02-08T17:58:32;100600.47;;;4.88;54.97
25650;BME280;13505;45.196;5.696;2023-02-08T18:03:23;100605.69;;;4.80;54.39
25650;BME280;13505;45.196;5.696;2023-02-08T18:08:13;100597.81;;;4.66;55.06
25650;BME280;13505;45.196;5.696;2023-02-08T18:13:04;100603.06;;;4.58;55.20
25650;BME280;13505;45.196;5.696;2023-02-08T18:17:54;100604.75;;;4.44;56.10
25650;BME280;13505;45.196;5.696;2023-02-08T18:22:45;100608.22;;;4.32;55.39
25650;BME280;13505;45.196;5.696;2023-02-08T18:27:35;100613.41;;;4.29;56.42
25650;BME280;13505;45.196;5.696;2023-02-08T18:32:26;100610.78;;;4.21;56.53
25650;BME280;13505;45.196;5.696;2023-02-08T18:37:17;100618.59;;;4.10;56.99
25650;BME280;13505;45.196;5.696;2023-02-08T18:42:07;100625.53;;;4.10;57.34
25650;BME280;13505;45.196;5.696;2023-02-08T18:46:58;100647.31;;;4.09;56.54
25650;BME280;13505;45.196;5.696;2023-02-08T18:51:48;100646.41;;;4.05;56.68
25650;BME280;13505;45.196;5.696;2023-02-08T18:56:40;100650.75;;;4.01;56.78
25650;BME280;13505;45.196;5.696;2023-02-08T19:01:31;100656.84;;;4.02;57.40
25650;BME280;13505;45.196;5.696;2023-02-08T19:06:23;100655.97;;;3.98;57.33
25650;BME280;13505;45.196;5.696;2023-02-08T19:11:15;100656.81;;;3.96;57.25
25650;BME280;13505;45.196;5.696;2023-02-08T19:16:06;100657.72;;;3.99;56.95
25650;BME280;13505;45.196;5.696;2023-02-08T19:21:05;100666.44;;;4.00;56.20
25650;BME280;13505;45.196;5.696;2023-02-08T19:25:55;100670.72;;;3.88;57.10
25650;BME280;13505;45.196;5.696;2023-02-08T19:30:45;100664.59;;;3.80;58.13
25650;BME280;13505;45.196;5.696;2023-02-08T19:35:37;100668.13;;;3.91;57.51
25650;BME280;13505;45.196;5.696;2023-02-08T19:40:27;100677.72;;;3.94;58.23
25650;BME280;13505;45.196;5.696;2023-02-08T19:45:18;100689.06;;;4.01;57.99
25650;BME280;13505;45.196;5.696;2023-02-08T19:50:08;100687.28;;;3.95;57.21
25650;BME280;13505;45.196;5.696;2023-02-08T19:54:58;100682.91;;;3.93;58.36
25650;BME280;13505;45.196;5.696;2023-02-08T19:59:49;100680.22;;;3.82;58.20
25650;BME280;13505;45.196;5.696;2023-02-08T20:04:40;100677.69;;;3.89;58.41
25650;BME280;13505;45.196;5.696;2023-02-08T20:09:30;100683.69;;;3.76;58.73
25650;BME280;13505;45.196;5.696;2023-02-08T20:14:21;100696.81;;;3.87;58.47
25650;BME280;13505;45.196;5.696;2023-02-08T20:19:12;100687.09;;;3.66;59.48
25650;BME280;13505;45.196;5.696;2023-02-08T20:24:02;100689.75;;;3.69;59.07
25650;BME280;13505;45.196;5.696;2023-02-08T20:28:55;100693.09;;;3.51;59.55
25650;BME280;13505;45.196;5.696;2023-02-08T20:33:46;100703.34;;;3.24;60.01
25650;BME280;13505;45.196;5.696;2023-02-08T20:38:37;100710.44;;;3.45;60.21
25650;BME280;13505;45.196;5.696;2023-02-08T20:43:28;100707.81;;;3.44;59.74
25650;BME280;13505;45.196;5.696;2023-02-08T20:48:18;100709.53;;;3.42;59.50
25650;BME280;13505;45.196;5.696;2023-02-08T20:53:08;100708.66;;;3.40;60.09
25650;BME280;13505;45.196;5.696;2023-02-08T20:57:59;100711.16;;;3.29;60.40
25650;BME280;13505;45.196;5.696;2023-02-08T21:02:49;100718.22;;;3.41;58.60
25650;BME280;13505;45.196;5.696;2023-02-08T21:07:40;100726.88;;;3.35;59.68
25650;BME280;13505;45.196;5.696;2023-02-08T21:12:30;100734.63;;;3.29;60.33
25650;BME280;13505;45.196;5.696;2023-02-08T21:17:20;100734.72;;;3.38;59.41
25650;BME280;13505;45.196;5.696;2023-02-08T21:22:11;100726.81;;;3.27;59.93
25650;BME280;13505;45.196;5.696;2023-02-08T21:27:01;100723.19;;;3.13;60.19
25650;BME280;13505;45.196;5.696;2023-02-08T21:31:52;100725.84;;;3.17;60.38
25650;BME280;13505;45.196;5.696;2023-02-08T21:36:43;100733.66;;;3.17;60.04
25650;BME280;13505;45.196;5.696;2023-02-08T21:41:33;100730.91;;;2.99;61.60
25650;BME280;13505;45.196;5.696;2023-02-08T21:46:24;100731.75;;;2.98;61.73
25650;BME280;13505;45.196;5.696;2023-02-08T21:51:16;100734.34;;;2.96;61.58
25650;BME280;13505;45.196;5.696;2023-02-08T21:56:25;100733.50;;;2.99;61.71
25650;BME280;13505;45.196;5.696;2023-02-08T22:01:16;100731.00;;;3.10;61.16
25650;BME280;13505;45.196;5.696;2023-02-08T22:06:06;100727.50;;;3.07;61.23
25650;BME280;13505;45.196;5.696;2023-02-08T22:10:56;100724.72;;;2.92;61.85
25650;BME280;13505;45.196;5.696;2023-02-08T22:15:53;100736.81;;;2.85;62.34
25650;BME280;13505;45.196;5.696;2023-02-08T22:20:43;100739.41;;;2.82;62.75
25650;BME280;13505;45.196;5.696;2023-02-08T22:25:33;100743.78;;;2.85;62.23
25650;BME280;13505;45.196;5.696;2023-02-08T22:30:24;100748.00;;;2.75;62.39
25650;BME280;13505;45.196;5.696;2023-02-08T22:35:16;100752.25;;;2.65;63.21
25650;BME280;13505;45.196;5.696;2023-02-08T22:40:08;100754.69;;;2.51;63.16
25650;BME280;13505;45.196;5.696;2023-02-08T22:44:58;100755.53;;;2.50;63.15
25650;BME280;13505;45.196;5.696;2023-02-08T22:49:49;100759.13;;;2.60;62.55
25650;BME280;13505;45.196;5.696;2023-02-08T22:54:40;100775.50;;;2.51;62.92
25650;BME280;13505;45.196;5.696;2023-02-08T22:59:32;100768.72;;;2.61;62.31
